createdAt,value
2023-09-19T00:01:53.740Z,14.87
2023-09-19T00:04:24.932Z,14.80
2023-09-19T00:06:51.611Z,14.82
2023-09-19T00:09:18.260Z,14.78
2023-09-19T00:11:45.773Z,14.73
2023-09-19T00:14:15.727Z,14.54
2023-09-19T00:16:42.556Z,14.62
2023-09-19T00:19:10.392Z,14.56
2023-09-19T00:21:39.054Z,14.45
2023-09-19T00:24:07.372Z,14.48
2023-09-19T00:26:35.531Z,14.55
2023-09-19T00:29:04.913Z,14.53
2023-09-19T00:31:32.252Z,14.53
2023-09-19T00:34:01.278Z,14.52
2023-09-19T00:36:27.970Z,14.57
2023-09-19T00:38:54.585Z,14.56
2023-09-19T00:41:22.281Z,14.57
2023-09-19T00:43:49.212Z,14.58
2023-09-19T00:46:18.948Z,14.55
2023-09-19T00:48:45.819Z,14.51
2023-09-19T00:51:14.892Z,14.56
2023-09-19T00:53:47.672Z,14.56
2023-09-19T00:56:16.323Z,14.52
2023-09-19T00:58:43.220Z,14.44
2023-09-19T01:01:10.085Z,14.51
2023-09-19T01:03:38.390Z,14.54
2023-09-19T01:06:05.486Z,14.52
2023-09-19T01:08:32.936Z,14.45
2023-09-19T01:11:19.083Z,14.50
2023-09-19T01:14:08.571Z,14.53
2023-09-19T01:16:47.326Z,14.47
2023-09-19T01:19:35.138Z,14.49
2023-09-19T01:22:30.214Z,14.57
2023-09-19T01:25:21.394Z,14.56
2023-09-19T01:27:58.792Z,14.56
2023-09-19T01:30:32.658Z,14.57
2023-09-19T01:33:00.709Z,14.54
2023-09-19T01:35:27.426Z,14.54
2023-09-19T01:37:55.005Z,14.51
2023-09-19T01:40:24.923Z,14.53
2023-09-19T01:43:05.691Z,14.51
2023-09-19T01:45:48.126Z,14.46
2023-09-19T01:48:27.954Z,14.53
2023-09-19T01:51:03.849Z,14.54
2023-09-19T01:53:52.758Z,14.53
2023-09-19T01:56:26.584Z,14.40
2023-09-19T01:58:57.911Z,14.40
2023-09-19T02:01:27.912Z,14.33
2023-09-19T02:03:55.413Z,14.41
2023-09-19T02:06:22.967Z,14.52
2023-09-19T02:08:50.443Z,14.42
2023-09-19T02:11:17.338Z,14.46
2023-09-19T02:13:44.631Z,14.71
2023-09-19T02:16:12.796Z,14.65
2023-09-19T02:18:40.633Z,14.75
2023-09-19T02:21:13.687Z,14.79
2023-09-19T02:23:41.079Z,14.76
2023-09-19T02:26:08.512Z,14.73
2023-09-19T02:28:37.193Z,14.75
2023-09-19T02:31:03.893Z,14.82
2023-09-19T02:33:34.106Z,14.79
2023-09-19T02:36:02.428Z,14.82
2023-09-19T02:38:30.387Z,14.81
2023-09-19T02:40:57.746Z,14.84
2023-09-19T02:43:24.943Z,14.83
2023-09-19T02:45:52.072Z,14.82
2023-09-19T02:48:19.621Z,14.83
2023-09-19T02:50:47.871Z,14.82
2023-09-19T02:53:15.150Z,14.74
2023-09-19T02:55:42.129Z,14.71
2023-09-19T02:58:09.280Z,14.67
2023-09-19T03:00:36.812Z,14.71
2023-09-19T03:03:03.713Z,14.70
2023-09-19T03:05:33.050Z,14.62
2023-09-19T03:08:02.050Z,14.58
2023-09-19T03:10:29.373Z,14.68
2023-09-19T03:12:56.236Z,14.68
2023-09-19T03:15:23.248Z,14.63
2023-09-19T03:17:50.767Z,14.68
2023-09-19T03:20:18.850Z,14.73
2023-09-19T03:22:47.093Z,14.64
2023-09-19T03:25:14.901Z,14.61
2023-09-19T03:27:41.921Z,14.64
2023-09-19T03:30:10.195Z,14.65
2023-09-19T03:32:37.460Z,14.57
2023-09-19T03:35:06.612Z,14.74
2023-09-19T03:37:34.447Z,14.76
2023-09-19T03:40:06.051Z,14.71
2023-09-19T03:42:33.273Z,14.82
2023-09-19T03:45:02.167Z,14.73
2023-09-19T03:47:28.879Z,14.81
2023-09-19T03:49:55.636Z,14.74
2023-09-19T03:52:22.353Z,14.78
2023-09-19T03:54:49.071Z,14.93
2023-09-19T03:57:18.402Z,14.86
2023-09-19T03:59:45.176Z,14.84
2023-09-19T04:02:23.619Z,14.79
2023-09-19T04:04:50.999Z,14.85
2023-09-19T04:07:18.657Z,14.77
2023-09-19T04:09:45.398Z,14.78
2023-09-19T04:12:12.431Z,14.81
2023-09-19T04:14:39.905Z,14.77
2023-09-19T04:17:08.775Z,14.84
2023-09-19T04:19:38.322Z,14.82
2023-09-19T04:22:05.649Z,14.80
2023-09-19T04:24:33.477Z,14.92
2023-09-19T04:27:02.969Z,14.87
2023-09-19T04:29:33.132Z,14.84
2023-09-19T04:31:59.866Z,14.83
2023-09-19T04:34:26.706Z,14.83
2023-09-19T04:36:54.216Z,14.90
2023-09-19T04:39:22.277Z,14.85
2023-09-19T04:41:49.467Z,14.98
2023-09-19T04:44:17.140Z,14.91
2023-09-19T04:46:44.041Z,14.90
2023-09-19T04:49:10.829Z,14.91
2023-09-19T04:51:37.848Z,14.94
2023-09-19T04:54:05.182Z,15.07
2023-09-19T04:56:32.881Z,15.01
2023-09-19T04:59:00.218Z,15.01
2023-09-19T05:01:27.523Z,14.84
2023-09-19T05:03:54.353Z,14.81
2023-09-19T05:06:24.087Z,14.84
2023-09-19T05:08:54.551Z,14.98
2023-09-19T05:11:25.793Z,14.80
2023-09-19T05:13:54.504Z,14.74
2023-09-19T05:16:21.658Z,14.92
2023-09-19T05:18:48.441Z,14.85
2023-09-19T05:21:15.149Z,14.79
2023-09-19T05:23:42.651Z,14.73
2023-09-19T05:26:09.892Z,14.65
2023-09-19T05:28:37.125Z,14.68
2023-09-19T05:31:03.998Z,14.61
2023-09-19T05:33:33.387Z,14.71
2023-09-19T05:36:00.363Z,14.67
2023-09-19T05:38:27.916Z,14.76
2023-09-19T05:40:55.398Z,14.77
2023-09-19T05:43:22.348Z,14.78
2023-09-19T05:45:49.390Z,14.85
2023-09-19T05:48:17.750Z,14.89
2023-09-19T05:50:46.133Z,14.93
2023-09-19T05:53:16.039Z,14.91
2023-09-19T05:55:43.109Z,15.05
2023-09-19T05:58:11.484Z,15.10
2023-09-19T06:00:39.746Z,15.00
2023-09-19T06:03:07.083Z,14.97
2023-09-19T06:05:34.144Z,14.91
2023-09-19T06:08:02.059Z,15.00
2023-09-19T06:10:29.489Z,15.04
2023-09-19T06:12:59.725Z,15.05
2023-09-19T06:15:27.160Z,15.10
2023-09-19T06:17:59.267Z,15.04
2023-09-19T06:20:27.175Z,15.05
2023-09-19T06:22:54.771Z,15.05
2023-09-19T06:25:23.522Z,15.07
2023-09-19T06:27:56.255Z,15.25
2023-09-19T06:30:26.937Z,15.24
2023-09-19T06:32:58.540Z,15.20
2023-09-19T06:35:30.948Z,15.16
2023-09-19T06:37:59.778Z,15.24
2023-09-19T06:40:26.895Z,15.24
2023-09-19T06:42:55.704Z,15.34
2023-09-19T06:45:23.410Z,15.33
2023-09-19T06:47:52.533Z,15.51
2023-09-19T06:50:23.410Z,15.62
2023-09-19T06:52:53.090Z,15.57
2023-09-19T06:55:21.578Z,15.71
2023-09-19T06:57:49.441Z,15.66
2023-09-19T07:00:17.333Z,15.72
2023-09-19T07:02:44.440Z,15.76
2023-09-19T07:05:11.686Z,16.02
2023-09-19T07:07:38.505Z,16.02
2023-09-19T07:10:06.946Z,16.13
2023-09-19T07:12:36.669Z,16.18
2023-09-19T07:15:04.057Z,16.16
2023-09-19T07:17:31.186Z,16.20
2023-09-19T07:19:59.206Z,16.30
2023-09-19T07:22:28.280Z,16.35
2023-09-19T07:24:55.231Z,16.33
2023-09-19T07:27:22.003Z,16.44
2023-09-19T07:29:50.661Z,16.42
2023-09-19T07:32:19.067Z,16.50
2023-09-19T07:34:46.060Z,16.67
2023-09-19T07:37:14.504Z,16.72
2023-09-19T07:39:42.624Z,16.79
2023-09-19T07:42:09.394Z,16.71
2023-09-19T07:44:37.534Z,16.86
2023-09-19T07:47:04.633Z,16.76
2023-09-19T07:49:31.509Z,16.77
2023-09-19T07:51:58.659Z,16.94
2023-09-19T07:54:25.542Z,16.84
2023-09-19T07:56:52.232Z,17.02
2023-09-19T07:59:18.925Z,17.02
2023-09-19T08:01:45.882Z,17.04
2023-09-19T08:04:12.738Z,17.24
2023-09-19T08:06:40.628Z,17.50
2023-09-19T08:09:10.611Z,17.65
2023-09-19T08:11:37.290Z,17.76
2023-09-19T08:14:04.086Z,17.74
2023-09-19T08:16:31.022Z,17.74
2023-09-19T08:18:57.799Z,18.01
2023-09-19T08:21:25.628Z,17.92
2023-09-19T08:23:52.344Z,18.07
2023-09-19T08:26:19.015Z,17.96
2023-09-19T08:28:45.746Z,18.06
2023-09-19T08:31:12.660Z,18.00
2023-09-19T08:33:39.910Z,18.05
2023-09-19T08:36:08.606Z,18.16
2023-09-19T08:38:36.879Z,18.29
2023-09-19T08:41:09.421Z,18.47
2023-09-19T08:43:36.818Z,18.69
2023-09-19T08:46:06.321Z,18.83
2023-09-19T08:48:35.782Z,18.82
2023-09-19T08:51:11.791Z,19.01
2023-09-19T08:54:00.582Z,18.83
2023-09-19T08:56:28.002Z,18.84
2023-09-19T08:59:05.615Z,19.14
2023-09-19T09:01:33.925Z,19.24
2023-09-19T09:04:03.263Z,19.46
2023-09-19T09:06:31.121Z,19.67
2023-09-19T09:08:57.987Z,19.52
2023-09-19T09:11:26.346Z,19.40
2023-09-19T09:13:53.113Z,19.67
2023-09-19T09:16:20.610Z,19.86
2023-09-19T09:18:54.436Z,19.72
2023-09-19T09:21:23.157Z,19.64
2023-09-19T09:23:51.205Z,19.63
2023-09-19T09:26:17.940Z,19.54
2023-09-19T09:28:49.721Z,19.53
2023-09-19T09:31:26.590Z,19.60
2023-09-19T09:33:57.284Z,19.75
2023-09-19T09:36:42.894Z,19.89
2023-09-19T09:39:26.730Z,19.92
2023-09-19T09:41:53.639Z,19.92
2023-09-19T09:44:20.841Z,19.93
2023-09-19T09:46:55.943Z,20.01
2023-09-19T09:49:35.571Z,20.29
2023-09-19T09:52:18.460Z,20.62
2023-09-19T09:55:07.397Z,20.60
2023-09-19T09:57:34.941Z,20.64
2023-09-19T10:00:15.346Z,20.48
2023-09-19T10:02:42.815Z,20.35
2023-09-19T10:05:29.870Z,20.17
2023-09-19T10:08:02.141Z,20.06
2023-09-19T10:10:44.452Z,19.98
2023-09-19T10:13:19.395Z,19.87
2023-09-19T10:15:53.781Z,19.72
2023-09-19T10:18:26.395Z,19.76
2023-09-19T10:20:53.492Z,19.65
2023-09-19T10:23:25.242Z,19.71
2023-09-19T10:25:53.678Z,19.65
2023-09-19T10:28:23.696Z,19.61
2023-09-19T10:30:52.858Z,19.61
2023-09-19T10:33:22.249Z,19.85
2023-09-19T10:35:52.934Z,19.92
2023-09-19T10:38:22.405Z,20.28
2023-09-19T10:40:52.201Z,20.27
2023-09-19T10:43:20.791Z,20.19
2023-09-19T10:45:50.686Z,20.08
2023-09-19T10:48:21.727Z,19.94
2023-09-19T10:51:06.285Z,19.95
2023-09-19T10:53:48.572Z,20.33
2023-09-19T10:56:29.075Z,20.53
2023-09-19T10:59:12.402Z,20.71
2023-09-19T11:01:52.772Z,20.54
2023-09-19T11:04:40.268Z,20.43
2023-09-19T11:07:16.814Z,20.27
2023-09-19T11:09:54.720Z,20.27
2023-09-19T11:12:30.472Z,20.31
2023-09-19T11:14:57.171Z,20.26
2023-09-19T11:17:38.877Z,20.28
2023-09-19T11:20:15.812Z,20.56
2023-09-19T11:22:53.314Z,20.63
2023-09-19T11:25:33.418Z,20.90
2023-09-19T11:28:26.565Z,21.14
2023-09-19T11:30:56.840Z,21.09
2023-09-19T11:33:34.569Z,21.14
2023-09-19T11:36:06.581Z,21.43
2023-09-19T11:38:51.538Z,21.41
2023-09-19T11:41:21.217Z,21.36
2023-09-19T11:43:48.954Z,21.48
2023-09-19T11:46:17.801Z,21.40
2023-09-19T11:48:45.682Z,21.55
2023-09-19T11:51:20.675Z,21.51
2023-09-19T11:53:50.834Z,21.71
2023-09-19T11:56:19.422Z,21.65
2023-09-19T11:58:47.056Z,21.55
2023-09-19T12:01:16.102Z,21.66
2023-09-19T12:03:49.181Z,21.55
2023-09-19T12:06:16.722Z,21.56
2023-09-19T12:08:44.913Z,21.66
2023-09-19T12:11:16.510Z,21.86
2023-09-19T12:13:47.878Z,21.98
2023-09-19T12:16:23.269Z,21.87
2023-09-19T12:18:52.757Z,21.67
2023-09-19T12:21:28.475Z,21.63
2023-09-19T12:24:05.830Z,21.68
2023-09-19T12:26:46.779Z,21.67
2023-09-19T12:29:18.935Z,21.49
2023-09-19T12:31:56.739Z,21.43
2023-09-19T12:34:36.263Z,21.53
2023-09-19T12:37:14.434Z,21.50
2023-09-19T12:39:42.460Z,21.71
2023-09-19T12:42:11.424Z,21.78
2023-09-19T12:44:42.835Z,21.96
2023-09-19T12:47:15.440Z,21.89
2023-09-19T12:50:07.777Z,21.79
2023-09-19T12:52:42.920Z,21.76
2023-09-19T12:55:30.156Z,21.77
2023-09-19T12:57:59.227Z,21.66
2023-09-19T13:00:43.449Z,21.71
2023-09-19T13:03:29.871Z,21.73
2023-09-19T13:06:02.126Z,21.91
2023-09-19T13:08:33.784Z,22.11
2023-09-19T13:11:19.074Z,22.04
2023-09-19T13:13:55.163Z,22.17
2023-09-19T13:16:24.459Z,22.01
2023-09-19T13:18:58.346Z,21.95
2023-09-19T13:21:44.356Z,22.02
2023-09-19T13:24:29.011Z,22.05
2023-09-19T13:26:56.200Z,22.20
2023-09-19T13:29:23.408Z,21.84
2023-09-19T13:31:51.483Z,21.67
2023-09-19T13:34:18.901Z,21.60
2023-09-19T13:36:46.292Z,21.63
2023-09-19T13:39:17.327Z,21.57
2023-09-19T13:41:49.205Z,21.60
2023-09-19T13:44:16.274Z,21.70
2023-09-19T13:46:47.314Z,21.67
2023-09-19T13:49:14.742Z,21.75
2023-09-19T13:51:45.439Z,21.80
2023-09-19T13:54:15.723Z,21.82
2023-09-19T13:56:42.524Z,21.68
2023-09-19T13:59:09.412Z,21.62
2023-09-19T14:01:36.299Z,21.72
2023-09-19T14:04:03.845Z,21.73
2023-09-19T14:06:30.694Z,21.68
2023-09-19T14:08:57.562Z,21.57
2023-09-19T14:11:24.312Z,21.70
2023-09-19T14:13:51.062Z,21.60
2023-09-19T14:16:19.001Z,21.68
2023-09-19T14:18:47.126Z,21.46
2023-09-19T14:21:13.965Z,21.51
2023-09-19T14:23:40.836Z,21.57
2023-09-19T14:26:07.626Z,21.56
2023-09-19T14:28:37.832Z,21.53
2023-09-19T14:31:11.347Z,21.53
2023-09-19T14:33:39.524Z,21.48
2023-09-19T14:36:07.890Z,21.47
2023-09-19T14:38:35.392Z,21.43
2023-09-19T14:41:06.089Z,21.42
2023-09-19T14:43:34.094Z,21.45
2023-09-19T14:46:11.951Z,21.43
2023-09-19T14:48:39.174Z,21.38
2023-09-19T14:51:09.889Z,21.31
2023-09-19T14:53:40.646Z,21.32
2023-09-19T14:56:10.364Z,21.43
2023-09-19T14:58:37.448Z,21.33
2023-09-19T15:01:11.539Z,21.30
2023-09-19T15:03:40.920Z,21.27
2023-09-19T15:06:18.389Z,21.11
2023-09-19T15:08:49.276Z,21.27
2023-09-19T15:11:20.112Z,21.15
2023-09-19T15:13:51.861Z,21.10
2023-09-19T15:16:18.633Z,21.17
2023-09-19T15:18:49.169Z,21.12
2023-09-19T15:21:16.595Z,21.17
2023-09-19T15:23:44.425Z,21.14
2023-09-19T15:26:13.098Z,21.00
2023-09-19T15:28:41.115Z,20.88
2023-09-19T15:31:10.622Z,20.82
2023-09-19T15:33:38.652Z,20.83
2023-09-19T15:36:13.196Z,20.83
2023-09-19T15:39:12.379Z,20.95
2023-09-19T15:41:46.140Z,20.77
2023-09-19T15:44:18.825Z,20.76
2023-09-19T15:46:46.373Z,20.79
2023-09-19T15:49:14.499Z,20.69
2023-09-19T15:51:41.888Z,20.71
2023-09-19T15:54:15.092Z,20.63
2023-09-19T15:56:43.206Z,20.60
2023-09-19T15:59:16.462Z,20.55
2023-09-19T16:01:45.026Z,20.44
2023-09-19T16:04:13.792Z,20.63
2023-09-19T16:06:42.402Z,20.44
2023-09-19T16:09:11.394Z,20.44
2023-09-19T16:11:38.364Z,20.25
2023-09-19T16:14:07.669Z,20.19
2023-09-19T16:16:36.549Z,20.22
2023-09-19T16:19:04.899Z,20.23
2023-09-19T16:21:34.151Z,20.15
2023-09-19T16:24:01.182Z,20.17
2023-09-19T16:26:30.034Z,20.28
2023-09-19T16:29:02.121Z,20.10
2023-09-19T16:31:30.783Z,20.03
2023-09-19T16:33:57.979Z,19.91
2023-09-19T16:36:25.319Z,19.86
2023-09-19T16:38:52.788Z,19.95
2023-09-19T16:41:20.717Z,19.74
2023-09-19T16:43:47.772Z,19.77
2023-09-19T16:46:18.084Z,19.74
2023-09-19T16:51:17.821Z,19.69
2023-09-19T16:53:47.071Z,19.60
2023-09-19T16:56:15.646Z,19.58
2023-09-19T16:58:43.987Z,19.57
2023-09-19T17:01:12.401Z,19.49
2023-09-19T17:03:42.751Z,19.34
2023-09-19T17:06:15.913Z,19.29
2023-09-19T17:08:47.232Z,19.27
2023-09-19T17:11:17.585Z,19.23
2023-09-19T17:13:48.642Z,19.19
2023-09-19T17:16:20.053Z,19.12
2023-09-19T17:18:48.648Z,19.11
2023-09-19T17:21:16.573Z,19.05
2023-09-19T17:23:43.491Z,18.92
2023-09-19T17:26:15.448Z,18.80
2023-09-19T17:28:43.372Z,18.72
2023-09-19T17:31:18.641Z,18.77
2023-09-19T17:33:47.376Z,18.70
2023-09-19T17:36:19.296Z,18.58
2023-09-19T17:38:50.537Z,18.48
2023-09-19T17:41:17.709Z,18.34
2023-09-19T17:43:48.805Z,18.29
2023-09-19T17:46:17.894Z,18.34
2023-09-19T17:48:47.466Z,18.23
2023-09-19T17:51:16.088Z,18.09
2023-09-19T17:53:43.836Z,18.06
2023-09-19T17:56:18.054Z,17.99
2023-09-19T17:58:47.433Z,18.02
2023-09-19T18:01:19.274Z,18.10
2023-09-19T18:03:46.224Z,17.95
2023-09-19T18:06:14.929Z,17.98
2023-09-19T18:08:45.180Z,17.84
2023-09-19T18:11:17.254Z,17.75
2023-09-19T18:13:45.604Z,17.55
2023-09-19T18:16:13.055Z,17.56
2023-09-19T18:18:40.006Z,17.48
2023-09-19T18:21:07.171Z,17.47
2023-09-19T18:23:35.220Z,17.44
2023-09-19T18:26:09.243Z,17.38
2023-09-19T18:28:40.443Z,17.28
2023-09-19T18:31:10.899Z,17.22
2023-09-19T18:36:07.839Z,17.06
2023-09-19T18:41:12.770Z,16.96
2023-09-19T18:43:40.701Z,16.97
2023-09-19T18:46:14.781Z,16.93
2023-09-19T18:48:48.339Z,16.84
2023-09-19T18:51:18.421Z,16.86
2023-09-19T18:53:56.778Z,16.73
2023-09-19T18:56:28.599Z,16.65
2023-09-19T18:58:56.073Z,16.52
2023-09-19T19:01:22.832Z,16.50
2023-09-19T19:03:53.317Z,16.29
2023-09-19T19:06:20.093Z,16.43
2023-09-19T19:08:47.493Z,16.42
2023-09-19T19:11:22.907Z,16.40
2023-09-19T19:13:53.577Z,16.36
2023-09-19T19:16:21.749Z,16.36
2023-09-19T19:18:49.639Z,16.27
2023-09-19T19:21:17.451Z,16.15
2023-09-19T19:23:44.489Z,16.12
2023-09-19T19:26:12.622Z,16.19
2023-09-19T19:28:41.903Z,16.30
2023-09-19T19:31:10.888Z,16.22
2023-09-19T19:33:40.070Z,16.23
2023-09-19T19:36:08.906Z,16.03
2023-09-19T19:38:35.881Z,15.90
2023-09-19T19:41:03.000Z,15.83
2023-09-19T19:43:30.057Z,15.75
2023-09-19T19:46:02.262Z,15.73
2023-09-19T19:48:30.541Z,15.65
2023-09-19T19:50:58.819Z,15.50
2023-09-19T19:53:26.173Z,15.48
2023-09-19T19:55:53.005Z,15.24
2023-09-19T19:58:22.628Z,15.15
2023-09-19T20:00:51.003Z,15.46
2023-09-19T20:03:18.782Z,15.39
2023-09-19T20:05:47.766Z,15.41
2023-09-19T20:08:14.772Z,15.30
2023-09-19T20:10:42.230Z,15.35
2023-09-19T20:13:10.345Z,15.33
2023-09-19T20:15:40.100Z,15.33
2023-09-19T20:18:14.519Z,15.40
2023-09-19T20:20:41.288Z,15.38
2023-09-19T20:23:08.196Z,15.48
2023-09-19T20:25:35.863Z,15.36
2023-09-19T20:28:04.338Z,15.17
2023-09-19T20:30:32.916Z,15.07
2023-09-19T20:33:03.115Z,15.01
2023-09-19T20:35:30.402Z,15.06
2023-09-19T20:38:02.132Z,14.94
2023-09-19T20:40:29.062Z,14.93
2023-09-19T20:42:55.935Z,14.91
2023-09-19T20:45:22.762Z,14.87
2023-09-19T20:47:51.575Z,14.94
2023-09-19T20:50:19.876Z,14.88
2023-09-19T20:52:46.819Z,14.93
2023-09-19T20:55:13.570Z,14.92
2023-09-19T20:57:40.245Z,14.85
2023-09-19T21:00:09.999Z,14.77
2023-09-19T21:02:38.615Z,14.70
2023-09-19T21:05:06.116Z,14.67
2023-09-19T21:07:33.367Z,14.57
2023-09-19T21:10:01.253Z,14.57
2023-09-19T21:12:27.954Z,14.58
2023-09-19T21:14:54.836Z,14.54
2023-09-19T21:17:21.659Z,14.35
2023-09-19T21:19:48.506Z,14.43
2023-09-19T21:22:15.438Z,14.36
2023-09-19T21:24:42.407Z,14.26
2023-09-19T21:27:09.330Z,14.30
2023-09-19T21:29:35.980Z,14.20
2023-09-19T21:32:03.573Z,14.25
2023-09-19T21:34:31.057Z,14.23
2023-09-19T21:36:58.360Z,14.47
2023-09-19T21:39:25.113Z,14.23
2023-09-19T21:41:52.773Z,14.07
2023-09-19T21:44:19.601Z,14.01
2023-09-19T21:46:46.582Z,14.07
2023-09-19T21:49:13.490Z,14.08
2023-09-19T21:51:40.229Z,14.03
2023-09-19T21:54:07.074Z,14.03
2023-09-19T21:56:33.849Z,14.05
2023-09-19T21:59:00.667Z,13.93
2023-09-19T22:01:29.200Z,13.98
2023-09-19T22:03:56.089Z,13.99
2023-09-19T22:06:22.984Z,13.95
2023-09-19T22:08:51.360Z,13.95
2023-09-19T22:11:21.906Z,13.90
2023-09-19T22:13:49.708Z,13.88
2023-09-19T22:16:18.281Z,13.87
2023-09-19T22:18:51.921Z,13.87
2023-09-19T22:21:24.256Z,13.80
2023-09-19T22:23:51.418Z,13.91
2023-09-19T22:26:24.279Z,13.73
2023-09-19T22:28:54.382Z,13.81
2023-09-19T22:31:24.151Z,13.84
2023-09-19T22:33:56.298Z,13.71
2023-09-19T22:36:40.409Z,13.66
2023-09-19T22:39:17.884Z,13.33
2023-09-19T22:41:44.676Z,13.43
2023-09-19T22:44:11.898Z,13.55
2023-09-19T22:46:38.734Z,13.48
2023-09-19T22:49:13.602Z,13.25
2023-09-19T22:51:47.442Z,13.24
2023-09-19T22:54:14.358Z,13.20
2023-09-19T22:56:41.751Z,13.26
2023-09-19T22:59:09.470Z,13.37
2023-09-19T23:01:42.920Z,13.32
2023-09-19T23:04:12.988Z,13.33
2023-09-19T23:06:40.860Z,13.30
2023-09-19T23:09:10.398Z,13.28
2023-09-19T23:11:37.378Z,13.21
2023-09-19T23:14:04.060Z,13.19
2023-09-19T23:16:34.619Z,13.28
2023-09-19T23:19:21.226Z,13.24
2023-09-19T23:21:52.575Z,13.14
2023-09-19T23:24:20.514Z,13.30
2023-09-19T23:26:47.570Z,13.24
2023-09-19T23:29:14.249Z,13.30
2023-09-19T23:31:45.234Z,13.17
2023-09-19T23:34:15.038Z,13.23
2023-09-19T23:36:41.800Z,13.15
2023-09-19T23:39:09.711Z,13.10
2023-09-19T23:41:39.518Z,12.96
2023-09-19T23:44:14.175Z,13.01
2023-09-19T23:46:42.831Z,12.93
2023-09-19T23:49:10.860Z,13.04
2023-09-19T23:51:39.569Z,13.00
2023-09-19T23:54:08.108Z,12.95
2023-09-19T23:56:34.807Z,12.92
2023-09-19T23:59:02.091Z,12.89
